sensor_id;sensor_type;location;lat;lon;timestamp;pressure;altitude;pressure_sealevel;temperature
7389;BMP180;3735;50.136;11.062;2024-02-26T00:00:33;96618.00;;;1.40
7389;BMP180;3735;50.136;11.062;2024-02-26T00:03:01;96609.00;;;1.40
7389;BMP180;3735;50.136;11.062;2024-02-26T00:05:27;96600.00;;;1.50
7389;BMP180;3735;50.136;11.062;2024-02-26T00:07:52;96609.00;;;1.60
7389;BMP180;3735;50.136;11.062;2024-02-26T00:10:18;96597.00;;;1.60
7389;BMP180;3735;50.136;11.062;2024-02-26T00:12:44;96598.00;;;1.70
7389;BMP180;3735;50.136;11.062;2024-02-26T00:15:10;96599.00;;;1.70
7389;BMP180;3735;50.136;11.062;2024-02-26T00:17:36;96590.00;;;1.70
7389;BMP180;3735;50.136;11.062;2024-02-26T00:20:03;96575.00;;;1.70
7389;BMP180;3735;50.136;11.062;2024-02-26T00:22:34;96582.00;;;1.80
7389;BMP180;3735;50.136;11.062;2024-02-26T00:24:59;96585.00;;;1.80
7389;BMP180;3735;50.136;11.062;2024-02-26T00:27:25;96583.00;;;1.80
7389;BMP180;3735;50.136;11.062;2024-02-26T00:29:51;96567.00;;;1.80
7389;BMP180;3735;50.136;11.062;2024-02-26T00:32:17;96559.00;;;1.90
7389;BMP180;3735;50.136;11.062;2024-02-26T00:34:42;96566.00;;;1.90
7389;BMP180;3735;50.136;11.062;2024-02-26T00:37:08;96576.00;;;1.90
7389;BMP180;3735;50.136;11.062;2024-02-26T00:39:34;96576.00;;;1.90
7389;BMP180;3735;50.136;11.062;2024-02-26T00:42:00;96573.00;;;1.90
7389;BMP180;3735;50.136;11.062;2024-02-26T00:44:25;96563.00;;;1.80
7389;BMP180;3735;50.136;11.062;2024-02-26T00:46:51;96567.00;;;1.80
7389;BMP180;3735;50.136;11.062;2024-02-26T00:49:17;96552.00;;;1.80
7389;BMP180;3735;50.136;11.062;2024-02-26T00:51:43;96560.00;;;1.70
7389;BMP180;3735;50.136;11.062;2024-02-26T00:54:08;96555.00;;;1.70
7389;BMP180;3735;50.136;11.062;2024-02-26T00:56:34;96561.00;;;1.70
7389;BMP180;3735;50.136;11.062;2024-02-26T00:59:00;96562.00;;;1.70
7389;BMP180;3735;50.136;11.062;2024-02-26T01:01:25;96560.00;;;1.70
7389;BMP180;3735;50.136;11.062;2024-02-26T01:03:51;96542.00;;;1.60
7389;BMP180;3735;50.136;11.062;2024-02-26T01:06:17;96560.00;;;1.60
7389;BMP180;3735;50.136;11.062;2024-02-26T01:08:43;96563.00;;;1.50
7389;BMP180;3735;50.136;11.062;2024-02-26T01:11:08;96563.00;;;1.40
7389;BMP180;3735;50.136;11.062;2024-02-26T01:13:34;96567.00;;;1.30
7389;BMP180;3735;50.136;11.062;2024-02-26T01:16:00;96553.00;;;1.30
7389;BMP180;3735;50.136;11.062;2024-02-26T01:18:27;96555.00;;;1.40
7389;BMP180;3735;50.136;11.062;2024-02-26T01:20:52;96560.00;;;1.40
7389;BMP180;3735;50.136;11.062;2024-02-26T01:23:20;96556.00;;;1.40
7389;BMP180;3735;50.136;11.062;2024-02-26T01:25:46;96547.00;;;1.40
7389;BMP180;3735;50.136;11.062;2024-02-26T01:28:12;96551.00;;;1.40
7389;BMP180;3735;50.136;11.062;2024-02-26T01:30:37;96553.00;;;1.40
7389;BMP180;3735;50.136;11.062;2024-02-26T01:33:03;96556.00;;;1.30
7389;BMP180;3735;50.136;11.062;2024-02-26T01:35:29;96558.00;;;1.20
7389;BMP180;3735;50.136;11.062;2024-02-26T01:37:55;96553.00;;;1.10
7389;BMP180;3735;50.136;11.062;2024-02-26T01:40:22;96560.00;;;1.00
7389;BMP180;3735;50.136;11.062;2024-02-26T01:42:47;96555.00;;;0.90
7389;BMP180;3735;50.136;11.062;2024-02-26T01:45:17;96560.00;;;0.90
7389;BMP180;3735;50.136;11.062;2024-02-26T01:47:53;96561.00;;;0.80
7389;BMP180;3735;50.136;11.062;2024-02-26T01:50:19;96558.00;;;0.90
7389;BMP180;3735;50.136;11.062;2024-02-26T01:52:51;96565.00;;;0.80
7389;BMP180;3735;50.136;11.062;2024-02-26T01:55:20;96566.00;;;0.70
7389;BMP180;3735;50.136;11.062;2024-02-26T01:57:49;96571.00;;;0.50
7389;BMP180;3735;50.136;11.062;2024-02-26T02:00:16;96563.00;;;0.30
7389;BMP180;3735;50.136;11.062;2024-02-26T02:02:43;96577.00;;;0.20
7389;BMP180;3735;50.136;11.062;2024-02-26T02:05:16;96561.00;;;0.10
7389;BMP180;3735;50.136;11.062;2024-02-26T02:07:44;96572.00;;;0.10
7389;BMP180;3735;50.136;11.062;2024-02-26T02:10:11;96570.00;;;0.10
7389;BMP180;3735;50.136;11.062;2024-02-26T02:12:36;96575.00;;;0.10
7389;BMP180;3735;50.136;11.062;2024-02-26T02:15:06;96560.00;;;0.20
7389;BMP180;3735;50.136;11.062;2024-02-26T02:17:32;96571.00;;;0.30
7389;BMP180;3735;50.136;11.062;2024-02-26T02:19:57;96572.00;;;0.20
7389;BMP180;3735;50.136;11.062;2024-02-26T02:22:23;96570.00;;;0.10
7389;BMP180;3735;50.136;11.062;2024-02-26T02:24:52;96574.00;;;0.00
7389;BMP180;3735;50.136;11.062;2024-02-26T02:27:20;96572.00;;;-0.10
7389;BMP180;3735;50.136;11.062;2024-02-26T02:29:47;96573.00;;;-0.10
7389;BMP180;3735;50.136;11.062;2024-02-26T02:32:14;96577.00;;;0.00
7389;BMP180;3735;50.136;11.062;2024-02-26T02:34:41;96578.00;;;0.00
7389;BMP180;3735;50.136;11.062;2024-02-26T02:37:07;96576.00;;;-0.10
7389;BMP180;3735;50.136;11.062;2024-02-26T02:39:33;96581.00;;;-0.10
7389;BMP180;3735;50.136;11.062;2024-02-26T02:41:58;96580.00;;;-0.20
7389;BMP180;3735;50.136;11.062;2024-02-26T02:44:24;96572.00;;;-0.20
7389;BMP180;3735;50.136;11.062;2024-02-26T02:46:50;96571.00;;;-0.20
7389;BMP180;3735;50.136;11.062;2024-02-26T02:49:18;96560.00;;;-0.20
7389;BMP180;3735;50.136;11.062;2024-02-26T02:51:44;96569.00;;;-0.10
7389;BMP180;3735;50.136;11.062;2024-02-26T02:54:10;96560.00;;;-0.10
7389;BMP180;3735;50.136;11.062;2024-02-26T02:56:36;96565.00;;;0.00
7389;BMP180;3735;50.136;11.062;2024-02-26T02:59:02;96567.00;;;0.20
7389;BMP180;3735;50.136;11.062;2024-02-26T03:01:28;96565.00;;;0.30
7389;BMP180;3735;50.136;11.062;2024-02-26T03:03:54;96569.00;;;0.30
7389;BMP180;3735;50.136;11.062;2024-02-26T03:06:20;96576.00;;;0.30
7389;BMP180;3735;50.136;11.062;2024-02-26T03:08:46;96565.00;;;0.30
7389;BMP180;3735;50.136;11.062;2024-02-26T03:11:15;96565.00;;;0.40
7389;BMP180;3735;50.136;11.062;2024-02-26T03:13:41;96568.00;;;0.40
7389;BMP180;3735;50.136;11.062;2024-02-26T03:16:07;96563.00;;;0.50
7389;BMP180;3735;50.136;11.062;2024-02-26T03:18:33;96564.00;;;0.60
7389;BMP180;3735;50.136;11.062;2024-02-26T03:21:00;96561.00;;;0.50
7389;BMP180;3735;50.136;11.062;2024-02-26T03:23:25;96574.00;;;0.50
7389;BMP180;3735;50.136;11.062;2024-02-26T03:25:51;96584.00;;;0.60
7389;BMP180;3735;50.136;11.062;2024-02-26T03:28:17;96582.00;;;0.60
7389;BMP180;3735;50.136;11.062;2024-02-26T03:30:43;96582.00;;;0.60
7389;BMP180;3735;50.136;11.062;2024-02-26T03:33:09;96593.00;;;0.60
7389;BMP180;3735;50.136;11.062;2024-02-26T03:35:35;96591.00;;;0.60
7389;BMP180;3735;50.136;11.062;2024-02-26T03:38:01;96588.00;;;0.70
7389;BMP180;3735;50.136;11.062;2024-02-26T03:40:28;96594.00;;;0.60
7389;BMP180;3735;50.136;11.062;2024-02-26T03:42:53;96593.00;;;0.60
7389;BMP180;3735;50.136;11.062;2024-02-26T03:45:19;96595.00;;;0.60
7389;BMP180;3735;50.136;11.062;2024-02-26T03:47:45;96587.00;;;0.70
7389;BMP180;3735;50.136;11.062;2024-02-26T03:50:11;96580.00;;;0.80
7389;BMP180;3735;50.136;11.062;2024-02-26T03:52:37;96571.00;;;0.90
7389;BMP180;3735;50.136;11.062;2024-02-26T03:55:03;96571.00;;;1.00
7389;BMP180;3735;50.136;11.062;2024-02-26T03:57:29;96563.00;;;1.00
7389;BMP180;3735;50.136;11.062;2024-02-26T03:59:54;96561.00;;;1.10
7389;BMP180;3735;50.136;11.062;2024-02-26T04:02:20;96554.00;;;1.10
7389;BMP180;3735;50.136;11.062;2024-02-26T04:04:47;96555.00;;;1.10
7389;BMP180;3735;50.136;11.062;2024-02-26T04:07:13;96548.00;;;1.20
7389;BMP180;3735;50.136;11.062;2024-02-26T04:09:39;96548.00;;;1.20
7389;BMP180;3735;50.136;11.062;2024-02-26T04:12:05;96547.00;;;1.20
7389;BMP180;3735;50.136;11.062;2024-02-26T04:14:31;96549.00;;;1.30
7389;BMP180;3735;50.136;11.062;2024-02-26T04:16:56;96555.00;;;1.30
7389;BMP180;3735;50.136;11.062;2024-02-26T04:19:22;96553.00;;;1.30
7389;BMP180;3735;50.136;11.062;2024-02-26T04:21:48;96538.00;;;1.30
7389;BMP180;3735;50.136;11.062;2024-02-26T04:24:14;96547.00;;;1.40
7389;BMP180;3735;50.136;11.062;2024-02-26T04:26:39;96540.00;;;1.40
7389;BMP180;3735;50.136;11.062;2024-02-26T04:29:05;96542.00;;;1.50
7389;BMP180;3735;50.136;11.062;2024-02-26T04:31:31;96546.00;;;1.50
7389;BMP180;3735;50.136;11.062;2024-02-26T04:33:58;96543.00;;;1.50
7389;BMP180;3735;50.136;11.062;2024-02-26T04:36:24;96553.00;;;1.50
7389;BMP180;3735;50.136;11.062;2024-02-26T04:38:51;96547.00;;;1.50
7389;BMP180;3735;50.136;11.062;2024-02-26T04:41:20;96552.00;;;1.60
7389;BMP180;3735;50.136;11.062;2024-02-26T04:43:45;96549.00;;;1.60
7389;BMP180;3735;50.136;11.062;2024-02-26T04:46:11;96549.00;;;1.60
7389;BMP180;3735;50.136;11.062;2024-02-26T04:48:37;96552.00;;;1.60
7389;BMP180;3735;50.136;11.062;2024-02-26T04:51:04;96554.00;;;1.50
7389;BMP180;3735;50.136;11.062;2024-02-26T04:53:31;96555.00;;;1.50
7389;BMP180;3735;50.136;11.062;2024-02-26T04:56:00;96556.00;;;1.60
7389;BMP180;3735;50.136;11.062;2024-02-26T04:58:25;96562.00;;;1.60
7389;BMP180;3735;50.136;11.062;2024-02-26T05:00:51;96568.00;;;1.60
7389;BMP180;3735;50.136;11.062;2024-02-26T05:03:17;96567.00;;;1.60
7389;BMP180;3735;50.136;11.062;2024-02-26T05:05:43;96555.00;;;1.60
7389;BMP180;3735;50.136;11.062;2024-02-26T05:08:09;96568.00;;;1.60
7389;BMP180;3735;50.136;11.062;2024-02-26T05:10:37;96560.00;;;1.60
7389;BMP180;3735;50.136;11.062;2024-02-26T05:13:06;96556.00;;;1.60
7389;BMP180;3735;50.136;11.062;2024-02-26T05:15:32;96553.00;;;1.70
7389;BMP180;3735;50.136;11.062;2024-02-26T05:17:58;96554.00;;;1.80
7389;BMP180;3735;50.136;11.062;2024-02-26T05:20:24;96557.00;;;1.80
7389;BMP180;3735;50.136;11.062;2024-02-26T05:22:50;96540.00;;;1.80
7389;BMP180;3735;50.136;11.062;2024-02-26T05:25:17;96547.00;;;1.90
7389;BMP180;3735;50.136;11.062;2024-02-26T05:27:44;96546.00;;;1.90
7389;BMP180;3735;50.136;11.062;2024-02-26T05:30:11;96548.00;;;1.90
7389;BMP180;3735;50.136;11.062;2024-02-26T05:32:37;96554.00;;;1.90
7389;BMP180;3735;50.136;11.062;2024-02-26T05:35:03;96555.00;;;1.90
7389;BMP180;3735;50.136;11.062;2024-02-26T05:37:30;96557.00;;;2.00
7389;BMP180;3735;50.136;11.062;2024-02-26T05:39:56;96560.00;;;2.00
7389;BMP180;3735;50.136;11.062;2024-02-26T05:42:22;96558.00;;;2.00
7389;BMP180;3735;50.136;11.062;2024-02-26T05:44:48;96554.00;;;2.00
7389;BMP180;3735;50.136;11.062;2024-02-26T05:47:13;96553.00;;;2.10
7389;BMP180;3735;50.136;11.062;2024-02-26T05:49:39;96563.00;;;2.10
7389;BMP180;3735;50.136;11.062;2024-02-26T05:52:06;96557.00;;;2.20
7389;BMP180;3735;50.136;11.062;2024-02-26T05:54:32;96570.00;;;2.20
7389;BMP180;3735;50.136;11.062;2024-02-26T05:56:58;96573.00;;;2.20
7389;BMP180;3735;50.136;11.062;2024-02-26T05:59:24;96564.00;;;2.20
7389;BMP180;3735;50.136;11.062;2024-02-26T06:01:49;96562.00;;;2.20
7389;BMP180;3735;50.136;11.062;2024-02-26T06:04:15;96567.00;;;2.20
7389;BMP180;3735;50.136;11.062;2024-02-26T06:06:46;96575.00;;;2.30
7389;BMP180;3735;50.136;11.062;2024-02-26T06:09:12;96570.00;;;2.30
7389;BMP180;3735;50.136;11.062;2024-02-26T06:11:38;96576.00;;;2.20
7389;BMP180;3735;50.136;11.062;2024-02-26T06:14:04;96580.00;;;2.20
7389;BMP180;3735;50.136;11.062;2024-02-26T06:16:30;96578.00;;;2.20
7389;BMP180;3735;50.136;11.062;2024-02-26T06:18:56;96584.00;;;2.20
7389;BMP180;3735;50.136;11.062;2024-02-26T06:21:22;96584.00;;;2.20
7389;BMP180;3735;50.136;11.062;2024-02-26T06:23:48;96585.00;;;2.20
7389;BMP180;3735;50.136;11.062;2024-02-26T06:26:15;96585.00;;;2.30
7389;BMP180;3735;50.136;11.062;2024-02-26T06:28:40;96580.00;;;2.40
7389;BMP180;3735;50.136;11.062;2024-02-26T06:31:06;96584.00;;;2.50
7389;BMP180;3735;50.136;11.062;2024-02-26T06:33:32;96577.00;;;2.60
7389;BMP180;3735;50.136;11.062;2024-02-26T06:35:58;96570.00;;;2.70
7389;BMP180;3735;50.136;11.062;2024-02-26T06:38:24;96571.00;;;2.80
7389;BMP180;3735;50.136;11.062;2024-02-26T06:41:15;96560.00;;;2.80
7389;BMP180;3735;50.136;11.062;2024-02-26T06:44:01;96571.00;;;2.90
7389;BMP180;3735;50.136;11.062;2024-02-26T06:46:48;96574.00;;;3.10
7389;BMP180;3735;50.136;11.062;2024-02-26T06:52:56;96586.00;;;3.50
7389;BMP180;3735;50.136;11.062;2024-02-26T06:56:12;96596.00;;;3.60
7389;BMP180;3735;50.136;11.062;2024-02-26T07:02:05;96604.00;;;3.70
7389;BMP180;3735;50.136;11.062;2024-02-26T07:05:03;96604.00;;;3.70
7389;BMP180;3735;50.136;11.062;2024-02-26T07:11:15;96618.00;;;3.80
7389;BMP180;3735;50.136;11.062;2024-02-26T07:17:15;96616.00;;;3.90
7389;BMP180;3735;50.136;11.062;2024-02-26T07:20:51;96626.00;;;4.00
7389;BMP180;3735;50.136;11.062;2024-02-26T07:23:29;96616.00;;;4.10
7389;BMP180;3735;50.136;11.062;2024-02-26T07:26:06;96636.00;;;4.10
7389;BMP180;3735;50.136;11.062;2024-02-26T07:29:05;96633.00;;;4.20
7389;BMP180;3735;50.136;11.062;2024-02-26T07:32:09;96610.00;;;4.20
7389;BMP180;3735;50.136;11.062;2024-02-26T07:35:19;96638.00;;;4.20
7389;BMP180;3735;50.136;11.062;2024-02-26T07:41:25;96656.00;;;4.40
7389;BMP180;3735;50.136;11.062;2024-02-26T08:12:59;96682.00;;;5.50
7389;BMP180;3735;50.136;11.062;2024-02-26T08:20:04;96664.00;;;5.70
7389;BMP180;3735;50.136;11.062;2024-02-26T08:23:20;96625.00;;;5.70
7389;BMP180;3735;50.136;11.062;2024-02-26T08:26:17;96665.00;;;5.50
7389;BMP180;3735;50.136;11.062;2024-02-26T08:29:37;96666.00;;;5.70
7389;BMP180;3735;50.136;11.062;2024-02-26T08:33:12;96667.00;;;5.90
7389;BMP180;3735;50.136;11.062;2024-02-26T08:36:27;96667.00;;;6.00
7389;BMP180;3735;50.136;11.062;2024-02-26T08:39:24;96663.00;;;6.10
7389;BMP180;3735;50.136;11.062;2024-02-26T08:54:14;96670.00;;;7.20
7389;BMP180;3735;50.136;11.062;2024-02-26T09:21:13;96669.00;;;8.90
7389;BMP180;3735;50.136;11.062;2024-02-26T09:24:26;96668.00;;;9.40
7389;BMP180;3735;50.136;11.062;2024-02-26T09:42:01;96676.00;;;12.10
7389;BMP180;3735;50.136;11.062;2024-02-26T09:44:55;96678.00;;;11.60
7389;BMP180;3735;50.136;11.062;2024-02-26T09:57:28;96691.00;;;12.10
7389;BMP180;3735;50.136;11.062;2024-02-26T10:00:16;96681.00;;;12.00
7389;BMP180;3735;50.136;11.062;2024-02-26T10:03:30;96660.00;;;11.90
7389;BMP180;3735;50.136;11.062;2024-02-26T10:06:49;96700.00;;;11.50
7389;BMP180;3735;50.136;11.062;2024-02-26T10:16:32;96691.00;;;10.70
7389;BMP180;3735;50.136;11.062;2024-02-26T10:19:45;96695.00;;;10.40
7389;BMP180;3735;50.136;11.062;2024-02-26T10:26:49;96698.00;;;10.30
7389;BMP180;3735;50.136;11.062;2024-02-26T10:29:44;96701.00;;;10.60
7389;BMP180;3735;50.136;11.062;2024-02-26T10:32:34;96701.00;;;10.50
7389;BMP180;3735;50.136;11.062;2024-02-26T10:42:39;96709.00;;;10.50
7389;BMP180;3735;50.136;11.062;2024-02-26T10:45:57;96701.00;;;10.80
7389;BMP180;3735;50.136;11.062;2024-02-26T11:01:05;96700.00;;;15.70
7389;BMP180;3735;50.136;11.062;2024-02-26T11:04:04;96701.00;;;16.50
7389;BMP180;3735;50.136;11.062;2024-02-26T11:06:57;96699.00;;;17.30
7389;BMP180;3735;50.136;11.062;2024-02-26T11:10:16;96695.00;;;18.50
7389;BMP180;3735;50.136;11.062;2024-02-26T11:13:12;96698.00;;;19.00
7389;BMP180;3735;50.136;11.062;2024-02-26T11:19:38;96688.00;;;17.60
7389;BMP180;3735;50.136;11.062;2024-02-26T11:22:25;96703.00;;;17.60
7389;BMP180;3735;50.136;11.062;2024-02-26T11:26:01;96701.00;;;17.80
7389;BMP180;3735;50.136;11.062;2024-02-26T11:29:20;96703.00;;;17.90
7389;BMP180;3735;50.136;11.062;2024-02-26T11:32:07;96701.00;;;18.40
7389;BMP180;3735;50.136;11.062;2024-02-26T11:34:34;96703.00;;;18.70
7389;BMP180;3735;50.136;11.062;2024-02-26T11:37:40;96707.00;;;17.90
7389;BMP180;3735;50.136;11.062;2024-02-26T11:40:27;96701.00;;;18.00
7389;BMP180;3735;50.136;11.062;2024-02-26T11:43:07;96701.00;;;17.90
7389;BMP180;3735;50.136;11.062;2024-02-26T11:48:38;96687.00;;;17.80
7389;BMP180;3735;50.136;11.062;2024-02-26T11:54:52;96681.00;;;18.90
7389;BMP180;3735;50.136;11.062;2024-02-26T11:58:18;96671.00;;;19.80
7389;BMP180;3735;50.136;11.062;2024-02-26T12:00:47;96677.00;;;18.00
7389;BMP180;3735;50.136;11.062;2024-02-26T12:03:47;96686.00;;;17.30
7389;BMP180;3735;50.136;11.062;2024-02-26T12:07:25;96700.00;;;16.10
7389;BMP180;3735;50.136;11.062;2024-02-26T12:10:58;96691.00;;;16.50
7389;BMP180;3735;50.136;11.062;2024-02-26T12:14:26;96697.00;;;17.10
7389;BMP180;3735;50.136;11.062;2024-02-26T12:17:01;96701.00;;;17.70
7389;BMP180;3735;50.136;11.062;2024-02-26T12:19:55;96701.00;;;17.20
7389;BMP180;3735;50.136;11.062;2024-02-26T12:23:02;96694.00;;;15.90
7389;BMP180;3735;50.136;11.062;2024-02-26T12:26:26;96716.00;;;16.10
7389;BMP180;3735;50.136;11.062;2024-02-26T12:29:14;96720.00;;;15.90
7389;BMP180;3735;50.136;11.062;2024-02-26T12:32:05;96719.00;;;15.60
7389;BMP180;3735;50.136;11.062;2024-02-26T12:41:21;96730.00;;;14.30
7389;BMP180;3735;50.136;11.062;2024-02-26T12:51:36;96723.00;;;16.60
7389;BMP180;3735;50.136;11.062;2024-02-26T13:01:20;96727.00;;;16.90
7389;BMP180;3735;50.136;11.062;2024-02-26T13:04:54;96750.00;;;16.80
7389;BMP180;3735;50.136;11.062;2024-02-26T13:10:41;96746.00;;;16.80
7389;BMP180;3735;50.136;11.062;2024-02-26T13:17:49;96755.00;;;16.00
7389;BMP180;3735;50.136;11.062;2024-02-26T13:24:58;96749.00;;;15.50
7389;BMP180;3735;50.136;11.062;2024-02-26T13:31:53;96754.00;;;14.90
7389;BMP180;3735;50.136;11.062;2024-02-26T13:38:18;96752.00;;;14.90
7389;BMP180;3735;50.136;11.062;2024-02-26T13:41:13;96744.00;;;15.00
7389;BMP180;3735;50.136;11.062;2024-02-26T13:44:53;96748.00;;;15.00
7389;BMP180;3735;50.136;11.062;2024-02-26T13:47:38;96766.00;;;15.30
7389;BMP180;3735;50.136;11.062;2024-02-26T13:51:00;96764.00;;;15.90
7389;BMP180;3735;50.136;11.062;2024-02-26T13:53:52;96774.00;;;16.00
7389;BMP180;3735;50.136;11.062;2024-02-26T13:57:17;96781.00;;;15.70
7389;BMP180;3735;50.136;11.062;2024-02-26T14:04:19;96772.00;;;15.50
7389;BMP180;3735;50.136;11.062;2024-02-26T14:17:26;96793.00;;;14.20
7389;BMP180;3735;50.136;11.062;2024-02-26T14:24:11;96810.00;;;13.80
7389;BMP180;3735;50.136;11.062;2024-02-26T14:27:09;96811.00;;;13.50
7389;BMP180;3735;50.136;11.062;2024-02-26T14:45:40;96827.00;;;13.10
7389;BMP180;3735;50.136;11.062;2024-02-26T14:48:35;96836.00;;;13.00
7389;BMP180;3735;50.136;11.062;2024-02-26T14:51:25;96827.00;;;13.00
7389;BMP180;3735;50.136;11.062;2024-02-26T15:14:32;96837.00;;;12.20
7389;BMP180;3735;50.136;11.062;2024-02-26T15:22:26;96845.00;;;12.00
7389;BMP180;3735;50.136;11.062;2024-02-26T15:36:49;96834.00;;;11.70
7389;BMP180;3735;50.136;11.062;2024-02-26T15:39:45;96860.00;;;11.60
7389;BMP180;3735;50.136;11.062;2024-02-26T15:51:40;96864.00;;;11.30
7389;BMP180;3735;50.136;11.062;2024-02-26T15:57:37;96863.00;;;11.20
7389;BMP180;3735;50.136;11.062;2024-02-26T16:00:54;96872.00;;;11.20
7389;BMP180;3735;50.136;11.062;2024-02-26T16:04:45;96873.00;;;11.10
7389;BMP180;3735;50.136;11.062;2024-02-26T16:07:56;96879.00;;;11.00
7389;BMP180;3735;50.136;11.062;2024-02-26T16:11:00;96887.00;;;11.00
7389;BMP180;3735;50.136;11.062;2024-02-26T16:31:59;96918.00;;;10.70
7389;BMP180;3735;50.136;11.062;2024-02-26T16:35:43;96927.00;;;10.60
7389;BMP180;3735;50.136;11.062;2024-02-26T16:41:54;96937.00;;;10.50
7389;BMP180;3735;50.136;11.062;2024-02-26T16:58:14;96952.00;;;10.30
7389;BMP180;3735;50.136;11.062;2024-02-26T17:00:40;96949.00;;;10.30
7389;BMP180;3735;50.136;11.062;2024-02-26T17:03:06;96953.00;;;10.20
7389;BMP180;3735;50.136;11.062;2024-02-26T17:06:38;96967.00;;;10.20
7389;BMP180;3735;50.136;11.062;2024-02-26T17:10:12;96978.00;;;10.10
7389;BMP180;3735;50.136;11.062;2024-02-26T17:16:43;96980.00;;;9.90
7389;BMP180;3735;50.136;11.062;2024-02-26T17:19:53;96979.00;;;9.80
7389;BMP180;3735;50.136;11.062;2024-02-26T17:23:23;96983.00;;;9.70
7389;BMP180;3735;50.136;11.062;2024-02-26T17:26:44;96984.00;;;9.50
7389;BMP180;3735;50.136;11.062;2024-02-26T17:29:51;96996.00;;;9.30
7389;BMP180;3735;50.136;11.062;2024-02-26T17:32:26;96998.00;;;9.20
7389;BMP180;3735;50.136;11.062;2024-02-26T17:35:28;97010.00;;;9.10
7389;BMP180;3735;50.136;11.062;2024-02-26T17:38:37;97004.00;;;8.90
7389;BMP180;3735;50.136;11.062;2024-02-26T17:41:26;97008.00;;;8.90
7389;BMP180;3735;50.136;11.062;2024-02-26T17:44:45;97023.00;;;8.80
7389;BMP180;3735;50.136;11.062;2024-02-26T17:51:39;97042.00;;;8.70
7389;BMP180;3735;50.136;11.062;2024-02-26T18:00:48;97041.00;;;8.60
7389;BMP180;3735;50.136;11.062;2024-02-26T18:03:32;97040.00;;;8.60
7389;BMP180;3735;50.136;11.062;2024-02-26T18:10:23;97051.00;;;8.50
7389;BMP180;3735;50.136;11.062;2024-02-26T18:13:14;97045.00;;;8.60
7389;BMP180;3735;50.136;11.062;2024-02-26T18:23:45;97069.00;;;8.50
7389;BMP180;3735;50.136;11.062;2024-02-26T18:27:17;97077.00;;;8.30
7389;BMP180;3735;50.136;11.062;2024-02-26T18:30:24;97084.00;;;8.20
7389;BMP180;3735;50.136;11.062;2024-02-26T18:33:29;97061.00;;;8.10
7389;BMP180;3735;50.136;11.062;2024-02-26T18:36:10;97088.00;;;8.10
7389;BMP180;3735;50.136;11.062;2024-02-26T18:38:46;97089.00;;;8.00
7389;BMP180;3735;50.136;11.062;2024-02-26T18:41:55;97098.00;;;7.90
7389;BMP180;3735;50.136;11.062;2024-02-26T18:44:33;97098.00;;;7.80
7389;BMP180;3735;50.136;11.062;2024-02-26T18:47:03;97101.00;;;7.80
7389;BMP180;3735;50.136;11.062;2024-02-26T18:49:40;97097.00;;;7.80
7389;BMP180;3735;50.136;11.062;2024-02-26T18:52:26;97103.00;;;7.70
7389;BMP180;3735;50.136;11.062;2024-02-26T18:55:02;97107.00;;;7.80
7389;BMP180;3735;50.136;11.062;2024-02-26T18:58:15;97112.00;;;7.80
7389;BMP180;3735;50.136;11.062;2024-02-26T19:00:47;97105.00;;;7.70
7389;BMP180;3735;50.136;11.062;2024-02-26T19:13:55;97123.00;;;7.50
7389;BMP180;3735;50.136;11.062;2024-02-26T19:16:26;97136.00;;;7.50
7389;BMP180;3735;50.136;11.062;2024-02-26T19:18:54;97141.00;;;7.50
7389;BMP180;3735;50.136;11.062;2024-02-26T19:21:25;97148.00;;;7.60
7389;BMP180;3735;50.136;11.062;2024-02-26T19:24:04;97146.00;;;7.60
7389;BMP180;3735;50.136;11.062;2024-02-26T19:29:38;97145.00;;;7.70
7389;BMP180;3735;50.136;11.062;2024-02-26T19:35:47;97148.00;;;7.80
7389;BMP180;3735;50.136;11.062;2024-02-26T19:41:54;97165.00;;;7.80
7389;BMP180;3735;50.136;11.062;2024-02-26T19:44:57;97164.00;;;7.80
7389;BMP180;3735;50.136;11.062;2024-02-26T19:48:04;97162.00;;;7.90
7389;BMP180;3735;50.136;11.062;2024-02-26T19:51:01;97174.00;;;7.90
7389;BMP180;3735;50.136;11.062;2024-02-26T19:53:37;97177.00;;;8.00
7389;BMP180;3735;50.136;11.062;2024-02-26T19:56:56;97177.00;;;7.90
7389;BMP180;3735;50.136;11.062;2024-02-26T20:00:12;97181.00;;;7.90
7389;BMP180;3735;50.136;11.062;2024-02-26T20:03:13;97190.00;;;7.90
7389;BMP180;3735;50.136;11.062;2024-02-26T20:06:17;97186.00;;;7.90
7389;BMP180;3735;50.136;11.062;2024-02-26T20:09:28;97188.00;;;7.90
7389;BMP180;3735;50.136;11.062;2024-02-26T20:12:51;97189.00;;;7.90
7389;BMP180;3735;50.136;11.062;2024-02-26T20:15:38;97193.00;;;7.90
7389;BMP180;3735;50.136;11.062;2024-02-26T20:18:28;97195.00;;;7.80
7389;BMP180;3735;50.136;11.062;2024-02-26T20:21:19;97214.00;;;7.80
7389;BMP180;3735;50.136;11.062;2024-02-26T20:24:23;97212.00;;;7.80
7389;BMP180;3735;50.136;11.062;2024-02-26T20:27:43;97204.00;;;7.80
7389;BMP180;3735;50.136;11.062;2024-02-26T20:30:22;97224.00;;;7.70
7389;BMP180;3735;50.136;11.062;2024-02-26T20:32:51;97226.00;;;7.70
7389;BMP180;3735;50.136;11.062;2024-02-26T20:35:27;97229.00;;;7.60
7389;BMP180;3735;50.136;11.062;2024-02-26T20:38:10;97230.00;;;7.70
7389;BMP180;3735;50.136;11.062;2024-02-26T20:44:22;97237.00;;;7.70
7389;BMP180;3735;50.136;11.062;2024-02-26T20:50:33;97247.00;;;7.70
7389;BMP180;3735;50.136;11.062;2024-02-26T20:53:05;97244.00;;;7.70
7389;BMP180;3735;50.136;11.062;2024-02-26T20:55:58;97246.00;;;7.70
7389;BMP180;3735;50.136;11.062;2024-02-26T20:58:36;97252.00;;;7.70
7389;BMP180;3735;50.136;11.062;2024-02-26T21:01:15;97261.00;;;7.70
7389;BMP180;3735;50.136;11.062;2024-02-26T21:08:19;97281.00;;;7.60
7389;BMP180;3735;50.136;11.062;2024-02-26T21:11:15;97268.00;;;7.50
7389;BMP180;3735;50.136;11.062;2024-02-26T21:14:05;97259.00;;;7.40
7389;BMP180;3735;50.136;11.062;2024-02-26T21:17:06;97288.00;;;7.40
7389;BMP180;3735;50.136;11.062;2024-02-26T21:19:44;97287.00;;;7.30
7389;BMP180;3735;50.136;11.062;2024-02-26T21:22:14;97293.00;;;7.40
7389;BMP180;3735;50.136;11.062;2024-02-26T21:25:09;97304.00;;;7.40
7389;BMP180;3735;50.136;11.062;2024-02-26T21:27:44;97301.00;;;7.30
7389;BMP180;3735;50.136;11.062;2024-02-26T21:33:04;97306.00;;;7.40
7389;BMP180;3735;50.136;11.062;2024-02-26T21:35:51;97317.00;;;7.30
7389;BMP180;3735;50.136;11.062;2024-02-26T21:38:22;97311.00;;;7.30
7389;BMP180;3735;50.136;11.062;2024-02-26T21:40:57;97320.00;;;7.30
7389;BMP180;3735;50.136;11.062;2024-02-26T22:25:58;97363.00;;;7.40
7389;BMP180;3735;50.136;11.062;2024-02-26T22:29:45;97363.00;;;7.50
7389;BMP180;3735;50.136;11.062;2024-02-26T22:32:37;97370.00;;;7.50
7389;BMP180;3735;50.136;11.062;2024-02-26T22:53:58;97380.00;;;7.50
7389;BMP180;3735;50.136;11.062;2024-02-26T22:57:11;97383.00;;;7.50
7389;BMP180;3735;50.136;11.062;2024-02-26T23:00:15;97413.00;;;7.50
7389;BMP180;3735;50.136;11.062;2024-02-26T23:15:24;97420.00;;;7.40
7389;BMP180;3735;50.136;11.062;2024-02-26T23:22:48;97422.00;;;7.40
7389;BMP180;3735;50.136;11.062;2024-02-26T23:29:34;97429.00;;;7.40